Time;durP1;ratioP1;P1;durP2;ratioP2;P2;SDS_P1;SDS_P2;PMS_P1;PMS_P2;Temp;Humidity;BMP_temperature;BMP_pressure;BME280_temperature;BME280_humidity;BME280_pressure;Samples;Min_cycle;Max_cycle;Signal;HPM_P1;HPM_P2
2021/09/04 00:01:08;;;;;;;1.77;1.10;;;;;;;16.32;92.69;101241.56;4986022;28;20049;-67
2021/09/04 00:03:33;;;;;;;4.32;0.90;;;;;;;16.17;92.83;101242.66;4989533;28;20029;-69
2021/09/04 00:06:00;;;;;;;2.38;0.85;;;;;;;16.01;93.09;101239.41;5035997;22;20508;-67
2021/09/04 00:08:25;;;;;;;1.13;0.73;;;;;;;16.05;93.37;101230.13;5007548;28;20077;-68
2021/09/04 00:10:52;;;;;;;2.47;0.77;;;;;;;16.04;93.44;101234.03;5007235;28;20398;-68
2021/09/04 00:13:18;;;;;;;2.03;0.85;;;;;;;16.10;93.15;101229.78;5000224;28;20035;-68
2021/09/04 00:15:44;;;;;;;1.35;0.70;;;;;;;16.10;93.31;101227.06;5006171;28;20105;-68
2021/09/04 00:18:09;;;;;;;2.35;0.77;;;;;;;16.08;93.21;101234.06;5009186;28;20053;-68
2021/09/04 00:20:35;;;;;;;2.72;1.08;;;;;;;16.04;92.99;101228.59;5002967;28;20396;-69
2021/09/04 00:23:00;;;;;;;3.25;0.90;;;;;;;16.06;93.15;101231.72;5008279;28;20057;-68
2021/09/04 00:25:26;;;;;;;1.70;0.73;;;;;;;16.08;94.01;101237.56;5007557;28;20555;-68
2021/09/04 00:27:51;;;;;;;0.82;0.70;;;;;;;15.92;93.60;101228.88;5002535;28;20022;-68
2021/09/04 00:30:17;;;;;;;2.70;0.80;;;;;;;15.89;94.06;101237.78;5003836;28;20106;-68
2021/09/04 00:32:42;;;;;;;2.60;1.00;;;;;;;15.95;94.07;101230.84;5008772;28;20148;-67
2021/09/04 00:35:08;;;;;;;3.55;1.52;;;;;;;16.00;93.52;101235.94;4970996;28;20042;-69
2021/09/04 00:37:34;;;;;;;0.80;0.73;;;;;;;15.91;93.92;101242.84;5010042;28;20083;-68
2021/09/04 00:40:00;;;;;;;0.90;0.57;;;;;;;15.97;93.81;101239.41;5013376;28;20030;-69
2021/09/04 00:42:26;;;;;;;1.73;0.90;;;;;;;15.93;92.99;101237.81;5011856;28;20036;-68
2021/09/04 00:44:52;;;;;;;1.92;1.00;;;;;;;15.93;93.40;101237.81;5013064;28;20018;-68
2021/09/04 00:47:17;;;;;;;1.88;0.73;;;;;;;15.83;94.19;101244.69;5009714;28;20143;-68
2021/09/04 00:49:43;;;;;;;2.28;1.25;;;;;;;15.86;93.86;101241.25;5012254;28;20026;-68
2021/09/04 00:52:09;;;;;;;2.30;0.90;;;;;;;15.67;93.55;101233.34;5011360;28;20041;-69
2021/09/04 00:54:35;;;;;;;2.05;0.73;;;;;;;15.65;94.09;101237.56;4992711;28;20073;-68
2021/09/04 00:57:02;;;;;;;4.00;1.45;;;;;;;15.61;93.76;101237.53;4997950;28;20096;-68
2021/09/04 00:59:28;;;;;;;3.10;0.80;;;;;;;15.66;93.74;101234.47;4999113;28;20034;-68
2021/09/04 01:01:54;;;;;;;3.17;0.70;;;;;;;15.55;94.39;101236.31;5003694;28;20052;-67
2021/09/04 01:04:21;;;;;;;1.20;0.80;;;;;;;15.49;94.26;101234.31;5011273;28;20419;-68
2021/09/04 01:06:48;;;;;;;2.10;0.70;;;;;;;15.43;94.56;101241.25;5012131;28;20022;-68
2021/09/04 01:09:17;;;;;;;1.83;0.60;;;;;;;15.41;94.60;101236.13;5013056;28;20041;-69
2021/09/04 01:11:43;;;;;;;1.55;0.88;;;;;;;15.48;94.45;101233.53;5010797;28;20407;-67
2021/09/04 01:14:08;;;;;;;1.80;1.10;;;;;;;15.46;94.59;101233.13;4995022;28;20034;-67
2021/09/04 01:16:39;;;;;;;1.83;0.90;;;;;;;15.34;94.61;101238.78;5004867;28;20042;-68
2021/09/04 01:19:05;;;;;;;1.88;0.80;;;;;;;15.25;94.55;101230.16;5011301;28;20087;-68
2021/09/04 01:21:32;;;;;;;2.08;0.80;;;;;;;15.27;94.87;101236.78;5002327;28;20046;-67
2021/09/04 01:24:02;;;;;;;2.35;0.80;;;;;;;15.16;95.17;101230.47;5005745;28;20018;-68
2021/09/04 01:26:27;;;;;;;2.40;1.05;;;;;;;15.13;95.16;101233.13;5008575;28;20038;-69
2021/09/04 01:28:55;;;;;;;1.52;0.80;;;;;;;15.22;95.03;101231.69;5010767;28;20083;-68
2021/09/04 01:31:23;;;;;;;3.83;0.90;;;;;;;15.08;95.23;101241.59;5007245;28;20109;-68
2021/09/04 01:33:49;;;;;;;1.95;0.85;;;;;;;15.12;95.06;101231.56;5008687;28;20037;-68
2021/09/04 01:36:30;;;;;;;3.13;0.80;;;;;;;15.01;94.87;101246.94;5011945;28;20037;-68
2021/09/04 01:38:56;;;;;;;2.83;0.80;;;;;;;14.95;95.61;101243.78;5011017;28;20049;-69
2021/09/04 01:41:22;;;;;;;3.65;0.88;;;;;;;14.83;96.07;101230.44;5009316;28;20482;-68
2021/09/04 01:43:47;;;;;;;2.30;0.70;;;;;;;14.85;96.29;101238.22;4973917;28;20120;-68
2021/09/04 01:46:12;;;;;;;3.90;0.90;;;;;;;14.70;97.30;101239.19;5011397;28;20044;-68
2021/09/04 01:48:38;;;;;;;2.28;0.70;;;;;;;14.72;96.94;101229.53;5011647;28;20072;-68
2021/09/04 01:51:03;;;;;;;2.13;0.73;;;;;;;14.85;96.85;101230.88;5010624;28;20158;-68
2021/09/04 01:53:29;;;;;;;1.85;0.82;;;;;;;14.82;96.36;101228.91;5007182;28;20038;-68
2021/09/04 01:55:55;;;;;;;2.05;0.85;;;;;;;14.77;96.49;101226.50;5002120;28;20475;-67
2021/09/04 01:58:20;;;;;;;2.95;0.70;;;;;;;14.78;96.51;101219.16;5004147;28;20053;-68
2021/09/04 02:00:46;;;;;;;1.17;0.60;;;;;;;14.73;96.48;101241.19;5010871;28;20173;-68
2021/09/04 02:03:11;;;;;;;2.35;1.25;;;;;;;14.73;96.01;101222.97;5007877;28;20042;-68
2021/09/04 02:05:37;;;;;;;1.00;0.65;;;;;;;14.73;96.38;101216.78;4998508;28;20017;-68
2021/09/04 02:08:02;;;;;;;1.95;0.55;;;;;;;14.72;96.56;101213.28;5011253;28;20168;-67
2021/09/04 02:10:28;;;;;;;4.57;0.95;;;;;;;14.77;95.83;101212.19;5010829;28;20117;-69
2021/09/04 02:12:53;;;;;;;4.68;1.17;;;;;;;14.67;95.89;101205.47;5004496;28;20040;-69
2021/09/04 02:15:19;;;;;;;1.88;0.90;;;;;;;14.71;95.89;101206.28;5005919;28;20033;-68
2021/09/04 02:17:44;;;;;;;6.40;0.93;;;;;;;14.76;95.45;101197.84;5007418;28;20033;-68
2021/09/04 02:20:11;;;;;;;1.27;0.57;;;;;;;14.59;95.95;101189.47;5014434;28;20037;-68
2021/09/04 02:22:38;;;;;;;2.67;1.08;;;;;;;14.70;95.57;101206.66;5004973;28;20494;-68
2021/09/04 02:25:04;;;;;;;1.30;0.82;;;;;;;14.53;95.47;101194.44;5010173;28;20036;-68
2021/09/04 02:27:32;;;;;;;1.10;0.85;;;;;;;14.43;96.56;101212.13;4992481;28;20451;-68
2021/09/04 02:29:58;;;;;;;4.55;0.75;;;;;;;14.37;97.30;101204.69;4994509;28;20100;-68
2021/09/04 02:32:24;;;;;;;1.27;0.70;;;;;;;14.35;97.81;101205.06;4999373;28;20038;-67
2021/09/04 02:34:49;;;;;;;3.15;0.68;;;;;;;14.47;97.91;101198.63;5006352;28;20516;-68
2021/09/04 02:37:16;;;;;;;3.45;1.30;;;;;;;14.54;98.28;101197.94;5005999;28;20029;-67
2021/09/04 02:39:44;;;;;;;2.67;1.23;;;;;;;14.63;98.40;101193.03;5001237;28;20099;-68
2021/09/04 02:42:11;;;;;;;2.22;1.08;;;;;;;14.67;98.64;101188.41;5008663;28;20041;-68
2021/09/04 02:44:38;;;;;;;2.33;1.00;;;;;;;14.72;98.79;101194.28;4998545;28;20291;-68
2021/09/04 02:47:05;;;;;;;1.75;0.82;;;;;;;14.76;99.43;101195.13;5009748;28;20030;-69
2021/09/04 02:49:30;;;;;;;3.63;1.17;;;;;;;14.90;99.10;101191.78;5004360;28;20122;-68
2021/09/04 02:51:56;;;;;;;2.20;1.13;;;;;;;15.04;98.77;101194.69;5005884;28;20076;-69
2021/09/04 02:54:22;;;;;;;1.67;0.70;;;;;;;15.12;98.74;101194.38;5009465;28;20027;-68
2021/09/04 02:56:48;;;;;;;4.40;1.10;;;;;;;15.02;99.23;101196.97;4985146;28;20037;-68
2021/09/04 02:59:15;;;;;;;3.63;0.90;;;;;;;15.02;99.63;101195.03;5007939;28;20044;-68
2021/09/04 03:01:42;;;;;;;1.92;0.93;;;;;;;15.06;99.84;101190.41;4996234;28;20038;-68
2021/09/04 03:04:08;;;;;;;1.40;0.85;;;;;;;15.15;99.67;101187.41;5009623;28;20508;-68
2021/09/04 03:06:35;;;;;;;1.00;0.70;;;;;;;15.05;100.00;101188.09;5005425;28;20045;-68
2021/09/04 03:09:01;;;;;;;1.35;0.80;;;;;;;15.16;100.00;101197.09;5009891;28;20065;-68
2021/09/04 03:11:27;;;;;;;2.22;0.82;;;;;;;15.00;100.00;101197.31;5008644;28;20107;-68
2021/09/04 03:13:53;;;;;;;1.25;0.82;;;;;;;15.05;100.00;101198.94;5006426;28;20037;-68
2021/09/04 03:16:18;;;;;;;2.42;1.10;;;;;;;15.14;100.00;101197.47;5011747;28;20028;-68
2021/09/04 03:18:44;;;;;;;2.65;1.45;;;;;;;15.22;100.00;101209.19;4979475;28;20065;-68
2021/09/04 03:21:10;;;;;;;2.25;1.00;;;;;;;15.33;100.00;101200.00;5023070;28;20477;-68
2021/09/04 03:23:36;;;;;;;1.15;0.77;;;;;;;15.28;100.00;101211.22;5009528;28;20064;-69
2021/09/04 03:26:05;;;;;;;2.70;0.80;;;;;;;15.38;100.00;101198.91;5009004;28;20064;-68
2021/09/04 03:28:34;;;;;;;1.67;1.00;;;;;;;15.37;100.00;101206.25;5004671;28;20042;-69
2021/09/04 03:31:00;;;;;;;1.63;1.00;;;;;;;15.34;100.00;101196.16;5009059;28;20083;-68
2021/09/04 03:33:26;;;;;;;2.00;1.00;;;;;;;15.31;100.00;101198.84;4999275;28;20034;-68
2021/09/04 03:35:51;;;;;;;1.98;0.90;;;;;;;15.42;100.00;101199.75;5008199;28;20056;-67
2021/09/04 03:38:17;;;;;;;2.20;0.75;;;;;;;15.43;100.00;101198.56;5004265;28;20116;-68
2021/09/04 03:40:42;;;;;;;1.25;0.70;;;;;;;15.48;100.00;101200.19;5007285;28;20117;-68
2021/09/04 03:43:09;;;;;;;2.35;1.08;;;;;;;15.49;100.00;101202.50;5008926;28;20025;-69
2021/09/04 03:45:35;;;;;;;1.20;0.75;;;;;;;15.50;100.00;101204.09;5008241;28;20029;-69
2021/09/04 03:48:01;;;;;;;1.02;0.63;;;;;;;15.50;100.00;101201.38;4998952;28;20083;-68
2021/09/04 03:50:28;;;;;;;2.28;0.77;;;;;;;15.38;100.00;101201.59;5008867;28;20041;-68
2021/09/04 03:52:55;;;;;;;1.40;0.82;;;;;;;15.49;100.00;101199.78;4988190;28;20029;-67
2021/09/04 03:55:20;;;;;;;2.08;0.80;;;;;;;15.49;100.00;101207.16;5013854;28;20040;-68
2021/09/04 03:57:46;;;;;;;2.70;0.88;;;;;;;15.55;100.00;101205.66;4977630;28;20038;-68
2021/09/04 04:00:13;;;;;;;2.08;0.80;;;;;;;15.47;100.00;101209.47;5007108;28;20030;-68
2021/09/04 04:02:41;;;;;;;1.42;0.80;;;;;;;15.53;100.00;101214.19;5005625;28;20406;-67
2021/09/04 04:05:13;;;;;;;1.85;0.88;;;;;;;15.44;100.00;101211.00;5011673;28;20041;-68
2021/09/04 04:07:39;;;;;;;1.02;0.80;;;;;;;15.45;100.00;101212.56;4995609;28;20025;-68
2021/09/04 04:10:05;;;;;;;1.80;0.88;;;;;;;15.51;100.00;101199.41;5014124;28;20032;-68
2021/09/04 04:12:30;;;;;;;2.53;1.10;;;;;;;15.56;100.00;101197.16;4995084;28;20038;-68
2021/09/04 04:14:56;;;;;;;2.15;0.98;;;;;;;15.60;100.00;101192.50;5010415;28;20049;-68
2021/09/04 04:17:24;;;;;;;1.95;1.13;;;;;;;15.58;100.00;101194.81;5012523;28;20026;-69
2021/09/04 04:19:50;;;;;;;1.60;0.98;;;;;;;15.56;100.00;101190.94;4989927;28;20036;-68
2021/09/04 04:22:15;;;;;;;4.75;1.13;;;;;;;15.58;100.00;101191.34;5007448;28;20410;-68
2021/09/04 04:24:42;;;;;;;2.42;1.40;;;;;;;15.59;100.00;101196.41;4996261;28;20026;-68
2021/09/04 04:27:08;;;;;;;2.65;1.08;;;;;;;15.66;100.00;101190.25;5007093;28;20041;-68
2021/09/04 04:29:33;;;;;;;3.53;1.38;;;;;;;15.65;100.00;101196.84;5013110;28;20482;-68
2021/09/04 04:31:59;;;;;;;1.67;1.08;;;;;;;15.67;100.00;101202.66;5011558;28;20064;-68
2021/09/04 04:34:25;;;;;;;5.53;1.25;;;;;;;15.60;100.00;101202.63;5006997;28;20032;-69
2021/09/04 04:36:51;;;;;;;3.88;1.60;;;;;;;15.69;100.00;101198.44;5006909;28;20501;-68
2021/09/04 04:39:17;;;;;;;2.17;1.17;;;;;;;15.70;100.00;101201.94;4997042;28;20109;-68
2021/09/04 04:41:42;;;;;;;3.60;1.88;;;;;;;15.72;100.00;101205.81;5012975;28;20036;-68
2021/09/04 04:44:08;;;;;;;1.77;1.27;;;;;;;15.63;100.00;101212.72;5008465;28;20065;-68
2021/09/04 04:46:33;;;;;;;1.92;1.17;;;;;;;15.71;100.00;101209.69;5011458;28;20548;-68
2021/09/04 04:49:01;;;;;;;2.83;1.48;;;;;;;15.75;100.00;101205.09;5012987;28;20402;-68
2021/09/04 04:51:27;;;;;;;3.67;1.30;;;;;;;15.79;100.00;101197.75;5007673;28;20044;-68
2021/09/04 04:53:53;;;;;;;4.28;1.58;;;;;;;15.84;100.00;101204.75;4992772;28;20033;-67
2021/09/04 04:56:18;;;;;;;2.85;1.50;;;;;;;15.79;100.00;101197.75;5007421;28;20475;-68
2021/09/04 04:58:45;;;;;;;2.88;1.73;;;;;;;15.86;100.00;101199.72;5011167;28;20070;-67
2021/09/04 05:01:11;;;;;;;2.55;1.60;;;;;;;15.86;100.00;101199.72;4996886;28;20071;-68
2021/09/04 05:03:36;;;;;;;3.72;1.70;;;;;;;15.88;100.00;101197.41;5011507;28;20550;-68
2021/09/04 05:06:02;;;;;;;3.55;1.55;;;;;;;15.85;100.00;101198.94;5009666;28;20134;-68
2021/09/04 05:08:28;;;;;;;2.58;1.60;;;;;;;15.91;100.00;101202.84;4995141;28;20518;-68
2021/09/04 05:10:55;;;;;;;2.65;1.63;;;;;;;15.90;100.00;101201.31;5011735;28;20034;-68
2021/09/04 05:13:21;;;;;;;2.33;1.45;;;;;;;15.94;100.00;101202.13;5012449;28;20099;-68
2021/09/04 05:15:49;;;;;;;2.58;1.55;;;;;;;16.00;100.00;101205.25;5000959;28;20661;-68
2021/09/04 05:18:14;;;;;;;3.85;1.70;;;;;;;16.02;100.00;101202.94;5006338;28;20065;-67
2021/09/04 05:20:43;;;;;;;3.08;1.67;;;;;;;16.03;100.00;101199.84;5010875;28;20527;-68
2021/09/04 05:23:09;;;;;;;2.25;1.23;;;;;;;16.07;100.00;101199.88;5012127;28;20057;-68
2021/09/04 05:25:34;;;;;;;3.05;1.60;;;;;;;16.10;100.00;101197.16;4984852;28;20104;-68
2021/09/04 05:28:00;;;;;;;5.57;2.25;;;;;;;16.15;99.47;101190.59;5009671;28;20168;-68
2021/09/04 05:30:26;;;;;;;3.78;1.70;;;;;;;16.15;99.46;101194.13;5003952;28;20033;-68
2021/09/04 05:32:51;;;;;;;3.92;2.10;;;;;;;16.16;98.96;101200.34;5010389;28;20735;-67
2021/09/04 05:35:17;;;;;;;7.78;1.67;;;;;;;16.13;98.39;101201.88;5011833;28;20148;-68
2021/09/04 05:37:42;;;;;;;2.92;1.85;;;;;;;16.19;98.13;101197.63;5011653;28;20112;-69
2021/09/04 05:40:09;;;;;;;4.07;2.08;;;;;;;16.23;98.09;101203.09;5006956;28;20041;-68
2021/09/04 05:42:35;;;;;;;4.13;2.05;;;;;;;16.24;98.27;101199.97;5010770;28;20478;-68
2021/09/04 05:45:00;;;;;;;5.13;2.00;;;;;;;16.26;97.60;101207.75;5009511;28;20026;-68
2021/09/04 05:47:26;;;;;;;2.75;1.80;;;;;;;16.28;98.11;101205.44;5002297;28;20033;-68
2021/09/04 05:49:51;;;;;;;4.35;2.05;;;;;;;16.32;97.26;101198.09;4987471;28;20050;-67
2021/09/04 05:52:17;;;;;;;5.38;1.63;;;;;;;16.40;96.38;101201.63;5000234;28;20040;-68
2021/09/04 05:54:42;;;;;;;4.22;1.60;;;;;;;16.39;96.40;101197.34;4993870;28;20116;-69
2021/09/04 05:57:07;;;;;;;3.17;1.70;;;;;;;16.43;96.27;101195.44;5003932;28;20069;-68
2021/09/04 05:59:33;;;;;;;3.90;2.15;;;;;;;16.43;96.21;101200.88;5008563;28;20486;-68
2021/09/04 06:01:58;;;;;;;5.55;1.70;;;;;;;16.46;96.53;101194.66;5003402;28;20037;-69
2021/09/04 06:04:24;;;;;;;5.00;1.70;;;;;;;16.46;96.74;101195.44;5011767;28;20478;-68
2021/09/04 06:06:49;;;;;;;6.03;1.95;;;;;;;16.51;96.74;101191.63;5000726;28;20037;-68
2021/09/04 06:09:15;;;;;;;4.57;1.90;;;;;;;16.56;96.39;101199.41;5007795;28;20376;-69
2021/09/04 06:11:40;;;;;;;4.40;1.80;;;;;;;16.59;96.26;101199.41;4993788;28;20037;-67
2021/09/04 06:14:06;;;;;;;4.03;1.83;;;;;;;16.61;95.79;101207.97;5003822;28;20049;-67
2021/09/04 06:16:32;;;;;;;4.00;1.98;;;;;;;16.71;94.55;101201.03;5000480;28;20471;-68
2021/09/04 06:18:57;;;;;;;2.53;1.65;;;;;;;16.78;93.92;101209.22;4993938;28;20510;-68
2021/09/04 06:21:23;;;;;;;3.97;2.00;;;;;;;16.77;93.84;101213.09;5008062;28;20038;-67
2021/09/04 06:23:48;;;;;;;4.65;2.03;;;;;;;16.83;93.11;101209.63;4986104;28;20037;-68
2021/09/04 06:26:14;;;;;;;6.95;2.10;;;;;;;16.83;92.81;101209.63;5004934;28;20036;-68
2021/09/04 06:28:39;;;;;;;6.53;2.67;;;;;;;16.93;92.69;101208.91;5010495;28;20025;-68
2021/09/04 06:31:05;;;;;;;5.00;2.10;;;;;;;16.89;93.02;101208.13;5009342;28;20025;-67
2021/09/04 06:33:30;;;;;;;5.05;2.03;;;;;;;16.89;93.21;101207.31;5005668;28;20414;-67
2021/09/04 06:35:56;;;;;;;4.20;1.77;;;;;;;16.93;93.22;101210.84;5009609;28;20068;-68
2021/09/04 06:38:21;;;;;;;4.38;2.17;;;;;;;16.96;92.37;101212.78;5009947;28;20033;-68
2021/09/04 06:40:47;;;;;;;6.07;2.15;;;;;;;16.98;91.58;101210.47;5006048;28;20037;-68
2021/09/04 06:43:13;;;;;;;5.10;2.17;;;;;;;17.02;91.55;101216.69;5010387;28;20479;-68
2021/09/04 06:45:38;;;;;;;8.02;2.13;;;;;;;17.07;91.16;101213.63;5007543;28;20100;-68
2021/09/04 06:48:04;;;;;;;4.30;2.10;;;;;;;17.06;91.55;101214.75;4987074;28;20045;-68
2021/09/04 06:50:30;;;;;;;3.75;1.85;;;;;;;17.06;91.31;101221.00;4992984;28;20685;-69
2021/09/04 06:52:55;;;;;;;5.22;2.10;;;;;;;17.14;90.27;101219.84;5006045;28;20511;-67
2021/09/04 06:55:21;;;;;;;8.13;2.08;;;;;;;17.21;90.06;101221.78;5005754;28;20511;-69
2021/09/04 06:57:46;;;;;;;7.85;2.15;;;;;;;17.21;90.22;101221.78;5010510;28;20037;-69
2021/09/04 07:00:12;;;;;;;4.85;1.75;;;;;;;17.28;89.38;101215.59;5010927;28;20446;-68
2021/09/04 07:02:38;;;;;;;4.32;1.95;;;;;;;17.33;89.25;101215.22;5005103;28;20037;-67
2021/09/04 07:05:04;;;;;;;5.47;2.20;;;;;;;17.39;88.78;101214.44;5010035;28;20029;-68
2021/09/04 07:07:29;;;;;;;3.72;1.75;;;;;;;17.45;88.40;101217.56;5008936;28;20613;-67
2021/09/04 07:09:55;;;;;;;6.15;2.30;;;;;;;17.46;87.48;101213.69;5002667;28;20165;-68
2021/09/04 07:12:21;;;;;;;2.97;1.70;;;;;;;17.50;87.52;101218.00;5008793;28;20065;-68
2021/09/04 07:14:46;;;;;;;5.75;2.10;;;;;;;17.51;86.40;101216.84;5008662;28;20126;-68
2021/09/04 07:17:11;;;;;;;4.90;2.33;;;;;;;17.56;85.97;101218.38;5002952;28;20041;-69
2021/09/04 07:19:37;;;;;;;4.65;1.92;;;;;;;17.63;86.90;101223.84;5008275;28;20033;-68
2021/09/04 07:22:03;;;;;;;5.55;2.00;;;;;;;17.67;86.16;101227.38;5006431;28;20117;-67
2021/09/04 07:24:28;;;;;;;4.55;2.17;;;;;;;17.72;85.86;101233.19;5008724;28;20032;-68
2021/09/04 07:26:54;;;;;;;6.10;2.00;;;;;;;17.80;85.33;101218.41;5005343;28;20022;-68
2021/09/04 07:29:19;;;;;;;3.97;2.05;;;;;;;17.86;84.65;101227.75;4993889;28;20044;-69
2021/09/04 07:31:44;;;;;;;5.90;2.35;;;;;;;17.93;84.13;101233.19;5007043;28;20030;-68
2021/09/04 07:34:10;;;;;;;4.68;1.73;;;;;;;18.01;82.84;101231.25;4959654;28;20030;-68
2021/09/04 07:36:36;;;;;;;6.82;1.60;;;;;;;18.02;81.60;101233.56;5005986;28;20044;-67
2021/09/04 07:39:01;;;;;;;3.97;1.85;;;;;;;18.10;79.90;101230.88;5006468;28;20124;-67
2021/09/04 07:41:26;;;;;;;6.22;1.90;;;;;;;18.13;80.19;101224.63;5003756;28;20038;-68
2021/09/04 07:43:52;;;;;;;3.13;1.50;;;;;;;18.16;79.70;101224.59;5006866;28;20030;-67
2021/09/04 07:46:17;;;;;;;6.82;1.70;;;;;;;18.21;79.76;101226.16;4998419;28;20109;-68
2021/09/04 07:48:43;;;;;;;4.32;1.80;;;;;;;18.27;78.48;101230.06;5006883;28;20040;-68
2021/09/04 07:51:08;;;;;;;4.05;1.80;;;;;;;18.31;78.98;101236.28;5006872;28;20038;-68
2021/09/04 07:53:34;;;;;;;3.55;1.88;;;;;;;18.36;78.96;101228.47;5002065;28;20406;-67
2021/09/04 07:55:59;;;;;;;5.70;1.77;;;;;;;18.43;78.66;101230.41;5006869;28;20038;-68
2021/09/04 07:58:25;;;;;;;4.13;1.73;;;;;;;18.46;78.39;101240.56;5006453;28;20026;-69
2021/09/04 08:00:50;;;;;;;2.75;1.50;;;;;;;18.58;78.16;101242.88;5006370;28;20038;-69
2021/09/04 08:03:16;;;;;;;3.08;1.58;;;;;;;18.60;77.19;101244.03;5006992;28;20041;-68
2021/09/04 08:05:41;;;;;;;2.28;1.48;;;;;;;18.54;76.40;101244.84;5006640;28;20045;-68
2021/09/04 08:08:07;;;;;;;4.25;1.60;;;;;;;18.58;75.53;101248.34;5000045;28;20033;-67
2021/09/04 08:10:32;;;;;;;4.68;1.45;;;;;;;18.67;75.26;101246.75;5002205;28;20033;-69
2021/09/04 08:12:58;;;;;;;2.95;1.60;;;;;;;18.75;75.52;101239.31;4994776;28;20165;-67
2021/09/04 08:15:23;;;;;;;3.90;1.65;;;;;;;18.81;74.78;101237.72;5006260;28;20041;-68
2021/09/04 08:17:49;;;;;;;2.95;1.50;;;;;;;18.91;74.84;101245.09;5006894;28;20121;-68
2021/09/04 08:20:14;;;;;;;2.80;1.45;;;;;;;18.95;74.62;101248.56;5005796;28;20395;-68
2021/09/04 08:22:40;;;;;;;3.70;1.50;;;;;;;18.89;74.87;101250.94;5002423;28;20034;-69
2021/09/04 08:25:06;;;;;;;3.13;1.50;;;;;;;18.98;73.06;101258.72;5002735;28;20042;-68
2021/09/04 08:27:32;;;;;;;2.55;1.40;;;;;;;19.12;72.20;101247.72;5008006;28;20036;-68
2021/09/04 08:29:57;;;;;;;3.92;1.55;;;;;;;19.28;71.65;101244.53;5005566;28;20659;-67
2021/09/04 08:32:23;;;;;;;2.63;1.38;;;;;;;19.36;70.19;101252.28;5006352;28;20034;-67
2021/09/04 08:34:49;;;;;;;4.60;1.30;;;;;;;19.46;69.98;101251.47;4979500;28;20039;-68
2021/09/04 08:37:14;;;;;;;2.17;1.20;;;;;;;19.63;71.41;101245.09;5004800;28;20053;-68
2021/09/04 08:39:40;;;;;;;2.75;1.40;;;;;;;19.76;68.94;101253.59;4996210;28;20034;-67
2021/09/04 08:42:05;;;;;;;3.00;1.70;;;;;;;19.84;69.15;101260.53;5010554;28;20133;-68
2021/09/04 08:44:31;;;;;;;1.95;1.45;;;;;;;20.06;68.88;101255.69;5009604;28;20037;-68
2021/09/04 08:46:57;;;;;;;1.88;1.23;;;;;;;20.22;69.13;101262.22;4977950;28;20034;-67
2021/09/04 08:49:23;;;;;;;2.63;1.25;;;;;;;20.29;67.07;101272.31;5007993;28;20040;-68
2021/09/04 08:51:48;;;;;;;2.92;1.52;;;;;;;20.29;66.71;101264.09;5008319;28;20037;-67
2021/09/04 08:54:14;;;;;;;2.17;1.42;;;;;;;20.20;66.74;101272.00;5010468;28;20040;-67
2021/09/04 08:56:39;;;;;;;2.47;1.38;;;;;;;20.15;66.39;101266.97;4987497;28;20041;-68
2021/09/04 08:59:05;;;;;;;3.40;1.60;;;;;;;20.12;67.75;101278.69;5011319;28;20041;-67
2021/09/04 09:01:30;;;;;;;2.90;1.40;;;;;;;20.16;68.23;101274.75;5007988;28;20033;-67
2021/09/04 09:04:03;;;;;;;4.72;1.65;;;;;;;20.18;68.00;101279.81;5011183;28;20034;-68
2021/09/04 09:06:36;;;;;;;5.35;1.70;;;;;;;20.26;69.43;101270.41;5011951;28;20045;-69
2021/09/04 09:09:20;;;;;;;5.65;1.83;;;;;;;20.34;72.22;101278.13;4993333;28;20730;-68
2021/09/04 09:11:50;;;;;;;4.30;1.73;;;;;;;20.43;70.53;101275.69;5006070;28;20030;-67
2021/09/04 09:14:17;;;;;;;3.58;1.48;;;;;;;20.39;69.41;101274.97;5009855;28;20045;-68
2021/09/04 09:16:57;;;;;;;4.57;1.95;;;;;;;20.41;71.11;101278.06;5000313;28;20034;-69
2021/09/04 09:19:28;;;;;;;5.47;1.95;;;;;;;20.40;72.19;101281.97;5006922;28;20033;-68
2021/09/04 09:21:57;;;;;;;4.13;1.60;;;;;;;20.40;71.79;101286.69;5000081;28;20044;-69
2021/09/04 09:24:25;;;;;;;2.72;1.60;;;;;;;20.39;71.32;101285.91;5009216;28;20038;-68
2021/09/04 09:27:00;;;;;;;7.75;1.98;;;;;;;20.32;72.98;101287.94;5010281;28;20115;-67
2021/09/04 09:29:34;;;;;;;4.38;1.88;;;;;;;20.31;71.27;101289.09;5006036;28;20426;-67
2021/09/04 09:32:08;;;;;;;4.35;1.52;;;;;;;20.32;70.99;101290.66;5006100;28;20042;-67
2021/09/04 09:34:38;;;;;;;4.22;1.50;;;;;;;20.33;71.33;101284.00;5010564;28;20038;-68
2021/09/04 09:37:04;;;;;;;5.45;1.70;;;;;;;20.29;72.37;101286.00;5006628;28;20052;-68
2021/09/04 09:39:32;;;;;;;5.00;1.70;;;;;;;20.22;73.50;101286.84;5011859;28;20044;-67
2021/09/04 09:41:59;;;;;;;4.22;1.80;;;;;;;20.22;73.74;101288.81;4985325;28;20030;-68
2021/09/04 09:44:30;;;;;;;2.75;1.90;;;;;;;20.24;75.02;101291.91;5007099;28;20422;-67
2021/09/04 09:46:58;;;;;;;2.63;1.60;;;;;;;20.24;73.96;101292.69;5008290;28;20388;-67
2021/09/04 09:49:31;;;;;;;4.40;1.50;;;;;;;20.14;73.94;101300.94;5001993;28;20038;-67
2021/09/04 09:51:59;;;;;;;3.63;1.52;;;;;;;20.04;74.74;101299.06;5002526;28;20036;-67
2021/09/04 09:54:27;;;;;;;5.60;1.75;;;;;;;20.05;74.67;101301.44;5010382;28;20065;-68
2021/09/04 09:56:57;;;;;;;3.65;1.52;;;;;;;20.08;75.69;101286.94;4991404;28;20022;-68
2021/09/04 09:59:28;;;;;;;5.38;1.70;;;;;;;20.13;75.28;101293.94;5004019;28;20537;-68
2021/09/04 10:01:56;;;;;;;3.28;1.58;;;;;;;20.26;74.51;101292.28;5008928;28;20045;-68
2021/09/04 10:04:26;;;;;;;4.97;1.60;;;;;;;20.43;75.03;101300.31;5004200;28;20084;-67
2021/09/04 10:06:51;;;;;;;3.75;1.77;;;;;;;20.66;72.32;101299.69;5010242;28;20092;-67
2021/09/04 10:09:17;;;;;;;4.32;1.73;;;;;;;20.82;71.83;101301.88;5002758;28;20039;-67
2021/09/04 10:11:43;;;;;;;2.53;1.58;;;;;;;20.93;72.75;101297.03;5009414;28;20479;-67
2021/09/04 10:14:09;;;;;;;5.65;1.73;;;;;;;20.98;71.63;101294.63;5003448;28;20048;-67
2021/09/04 10:16:36;;;;;;;3.35;1.70;;;;;;;21.12;71.12;101299.97;4984896;28;20096;-68
2021/09/04 10:19:02;;;;;;;4.32;1.80;;;;;;;21.16;69.95;101303.44;5011434;28;20060;-68
2021/09/04 10:21:37;;;;;;;5.72;1.73;;;;;;;21.16;70.27;101299.94;5009934;28;20064;-68
2021/09/04 10:24:03;;;;;;;4.18;2.00;;;;;;;21.03;71.68;101305.19;4987794;28;20049;-68
2021/09/04 10:26:34;;;;;;;4.65;2.00;;;;;;;20.90;72.28;101303.34;5005058;28;20026;-67
2021/09/04 10:29:18;;;;;;;5.35;1.80;;;;;;;20.74;72.77;101309.41;4986011;28;20124;-67
2021/09/04 10:32:02;;;;;;;3.35;1.40;;;;;;;20.71;72.49;101312.19;5001466;28;20033;-67
2021/09/04 10:34:37;;;;;;;3.58;1.67;;;;;;;20.62;74.29;101312.66;5010369;28;20034;-68
2021/09/04 10:37:05;;;;;;;3.50;1.65;;;;;;;20.68;73.15;101303.59;5006622;28;20810;-69
2021/09/04 10:39:46;;;;;;;3.38;1.88;;;;;;;20.66;72.24;101303.22;5004885;28;20065;-68
2021/09/04 10:42:20;;;;;;;3.63;1.85;;;;;;;20.58;72.10;101300.94;5005430;28;20060;-68
2021/09/04 10:44:54;;;;;;;5.38;1.75;;;;;;;20.58;70.51;101303.69;5005077;28;20072;-68
2021/09/04 10:47:20;;;;;;;3.13;1.35;;;;;;;20.58;71.67;101304.47;5007414;28;20113;-68
2021/09/04 10:49:56;;;;;;;3.80;1.75;;;;;;;20.70;70.72;101300.44;5007763;28;20113;-67
2021/09/04 10:52:44;;;;;;;3.85;1.98;;;;;;;20.63;69.37;101290.34;5001636;28;20030;-67
2021/09/04 10:55:20;;;;;;;4.82;1.67;;;;;;;20.75;70.76;101291.78;5010145;28;20131;-67
2021/09/04 10:57:49;;;;;;;3.17;1.65;;;;;;;20.94;70.88;101287.66;5010475;28;20037;-69
2021/09/04 11:00:37;;;;;;;3.42;1.55;;;;;;;21.02;69.52;101286.44;5006687;28;20041;-67
2021/09/04 11:03:06;;;;;;;4.40;1.63;;;;;;;21.21;70.25;101283.84;5002774;28;20088;-67
2021/09/04 11:05:34;;;;;;;2.25;1.30;;;;;;;21.38;70.06;101280.06;4987474;28;20053;-67
2021/09/04 11:08:04;;;;;;;4.43;1.50;;;;;;;21.72;69.40;101285.44;5008710;28;20030;-67
2021/09/04 11:10:31;;;;;;;5.38;1.80;;;;;;;21.91;66.46;101273.03;5007571;28;20182;-68
2021/09/04 11:13:12;;;;;;;3.50;1.70;;;;;;;22.00;67.04;101282.28;5006140;28;20038;-67
2021/09/04 11:15:42;;;;;;;2.72;1.50;;;;;;;22.18;66.50;101285.50;5002223;28;20045;-69
2021/09/04 11:18:10;;;;;;;5.97;1.35;;;;;;;22.36;67.26;101288.72;5000295;28;20041;-68
2021/09/04 11:20:47;;;;;;;4.15;1.20;;;;;;;22.59;63.03;101296.16;5000103;28;20516;-69
2021/09/04 11:23:27;;;;;;;3.05;1.65;;;;;;;22.96;61.24;101297.81;5007763;28;20042;-68